Time;durP1;ratioP1;P1;durP2;ratioP2;P2;SDS_P1;SDS_P2;PMS_P1;PMS_P2;Temp;Humidity;BMP_temperature;BMP_pressure;BME280_temperature;BME280_humidity;BME280_pressure;Samples;Min_cycle;Max_cycle;Signal;HPM_P1;HPM_P2
2022/03/31 00:01:33;;;;;;;18.63;7.53;;;;;;;13.65;51.39;100061.00;5098636;28;20055;-81
2022/03/31 00:04:09;;;;;;;17.88;7.22;;;;;;;13.48;51.85;100060.44;5127268;28;20059;-82
2022/03/31 00:07:00;;;;;;;20.75;6.63;;;;;;;13.49;52.17;100057.56;5119709;28;20114;-82
2022/03/31 00:09:25;;;;;;;16.40;6.45;;;;;;;13.59;52.34;100057.22;5106184;28;20031;-82
2022/03/31 00:11:51;;;;;;;20.70;6.28;;;;;;;13.57;52.33;100040.38;5101881;28;20517;-82
2022/03/31 00:14:16;;;;;;;18.90;6.35;;;;;;;13.56;52.14;100036.00;5106535;28;20468;-82
2022/03/31 00:16:42;;;;;;;19.38;6.78;;;;;;;13.52;52.37;100026.63;5094664;28;20035;-82
2022/03/31 00:19:07;;;;;;;16.85;6.47;;;;;;;13.72;52.17;100040.28;5111875;28;20047;-83
2022/03/31 00:21:33;;;;;;;17.73;6.90;;;;;;;13.64;52.06;100018.81;5136887;28;20023;-82
2022/03/31 00:23:59;;;;;;;18.30;6.63;;;;;;;13.65;52.09;100024.03;5117674;28;20445;-81
2022/03/31 00:26:24;;;;;;;14.23;6.30;;;;;;;13.75;51.88;100039.06;5105580;28;20058;-83
2022/03/31 00:28:50;;;;;;;16.27;6.43;;;;;;;13.70;52.32;100043.19;5113718;28;20449;-82
2022/03/31 00:31:16;;;;;;;15.82;6.50;;;;;;;13.60;52.42;100021.09;5105549;28;20036;-81
2022/03/31 00:33:43;;;;;;;;;;;;;;;13.55;52.72;100031.63;5110923;28;20028;-81
2022/03/31 00:36:08;;;;;;;14.77;6.63;;;;;;;13.51;52.79;100019.56;5097613;28;19961;-83
2022/03/31 00:38:34;;;;;;;17.27;7.00;;;;;;;13.51;52.79;100011.47;5113458;27;20035;-81
2022/03/31 00:41:00;;;;;;;18.35;6.93;;;;;;;13.48;52.47;99998.34;5107985;28;20083;-82
2022/03/31 00:43:25;;;;;;;;;;;;;;;13.56;52.81;100010.88;5113289;28;20364;-81
2022/03/31 00:45:56;;;;;;;19.23;7.00;;;;;;;13.52;52.86;100007.72;5112515;28;19926;-81
2022/03/31 00:48:23;;;;;;;17.55;6.57;;;;;;;13.49;52.84;99986.53;5110305;28;20460;-82
2022/03/31 00:50:49;;;;;;;18.80;7.00;;;;;;;13.46;53.02;100001.25;5122972;28;20051;-81
2022/03/31 00:53:15;;;;;;;16.50;6.90;;;;;;;13.37;53.15;99971.88;5119754;28;20032;-83
2022/03/31 00:55:42;;;;;;;19.55;6.75;;;;;;;13.49;52.91;99986.53;5108828;28;20114;-84
2022/03/31 00:58:08;;;;;;;22.95;7.57;;;;;;;13.50;52.96;99988.19;5067204;28;20040;-82
2022/03/31 01:00:35;;;;;;;19.30;7.80;;;;;;;13.24;53.81;99978.81;5099337;28;20031;-81
2022/03/31 01:03:01;;;;;;;19.23;6.95;;;;;;;13.10;54.32;99971.63;5107294;28;20048;-82
2022/03/31 01:05:27;;;;;;;18.20;7.00;;;;;;;12.89;55.31;99984.09;5097660;28;20591;-81
2022/03/31 01:07:52;;;;;;;18.13;7.30;;;;;;;12.85;55.40;99974.72;5112977;28;20039;-82
2022/03/31 01:10:19;;;;;;;20.15;7.93;;;;;;;12.93;55.30;99986.41;5106139;28;20024;-82
2022/03/31 01:12:46;;;;;;;17.33;7.47;;;;;;;13.01;55.08;99970.09;5108351;28;20060;-81
2022/03/31 01:15:21;;;;;;;18.27;7.05;;;;;;;13.09;54.95;99983.47;5111844;28;20039;-82
2022/03/31 01:17:47;;;;;;;16.95;7.32;;;;;;;13.06;55.17;99986.53;5112181;28;20031;-81
2022/03/31 01:20:20;;;;;;;17.13;6.60;;;;;;;12.97;55.43;99987.69;5112034;28;20032;-82
2022/03/31 01:22:48;;;;;;;18.92;7.85;;;;;;;12.95;55.64;99989.75;5110168;28;20039;-83
2022/03/31 01:25:13;;;;;;;18.50;7.55;;;;;;;12.62;56.68;99985.69;5098398;28;20044;-82
2022/03/31 01:27:41;;;;;;;14.82;6.65;;;;;;;12.69;56.72;99996.56;5102145;28;20028;-81
2022/03/31 01:30:11;;;;;;;22.80;8.15;;;;;;;12.67;56.56;99985.13;5097333;28;20063;-82
2022/03/31 01:32:37;;;;;;;24.00;7.75;;;;;;;12.48;57.15;99973.09;5091386;28;20043;-82
2022/03/31 01:35:16;;;;;;;21.05;7.32;;;;;;;12.45;57.34;99985.09;5091021;28;20024;-80
2022/03/31 01:38:07;;;;;;;18.27;7.50;;;;;;;12.47;57.54;99987.56;5116892;28;20044;-82
2022/03/31 01:40:45;;;;;;;16.23;7.45;;;;;;;12.34;57.75;99960.44;5095316;28;20052;-82
2022/03/31 01:43:13;;;;;;;19.98;7.50;;;;;;;12.42;57.17;99950.41;5106361;28;20063;-82
2022/03/31 01:45:39;;;;;;;21.55;7.53;;;;;;;12.48;57.33;99958.75;5125167;27;20495;-82
2022/03/31 01:48:05;;;;;;;19.63;7.40;;;;;;;12.59;57.31;99974.44;5067410;28;20071;-81
2022/03/31 01:50:30;;;;;;;21.08;7.32;;;;;;;12.61;57.33;99988.56;5081385;28;20051;-83
2022/03/31 01:52:58;;;;;;;20.15;7.60;;;;;;;12.65;57.12;99981.78;5107169;28;20106;-82
2022/03/31 01:55:24;;;;;;;19.90;7.57;;;;;;;12.64;57.43;99972.00;5094661;28;20048;-82
2022/03/31 01:57:49;;;;;;;15.65;7.72;;;;;;;12.58;57.52;99975.47;5107032;28;20110;-82
2022/03/31 02:00:15;;;;;;;17.33;7.30;;;;;;;12.57;57.75;99973.78;5076858;28;20591;-82
2022/03/31 02:02:43;;;;;;;15.68;7.07;;;;;;;12.59;57.50;99969.88;5110185;28;20063;-82
2022/03/31 02:05:09;;;;;;;19.05;7.68;;;;;;;12.50;57.71;99962.09;5092832;28;20075;-83
2022/03/31 02:07:34;;;;;;;;;;;;;;;12.53;57.99;99986.00;5107875;28;20468;-81
2022/03/31 02:10:00;;;;;;;16.95;7.00;;;;;;;12.47;57.92;99971.41;5095797;28;19912;-82
2022/03/31 02:12:26;;;;;;;22.38;8.00;;;;;;;12.43;58.17;99975.50;5097302;28;20122;-83
2022/03/31 02:14:53;;;;;;;22.05;7.78;;;;;;;12.38;58.38;99973.38;5102554;28;20051;-82
2022/03/31 02:17:18;;;;;;;17.80;8.27;;;;;;;12.39;58.30;99972.34;5107020;28;20101;-84
2022/03/31 02:19:44;;;;;;;22.20;7.38;;;;;;;12.42;58.28;99955.78;5106828;28;20035;-81
2022/03/31 02:22:10;;;;;;;;;;;;;;;12.50;57.87;99964.78;5112993;28;20039;-82
2022/03/31 02:24:35;;;;;;;18.90;6.80;;;;;;;12.48;58.06;99956.06;5107572;28;19998;-82
2022/03/31 02:27:01;;;;;;;14.32;6.47;;;;;;;12.47;57.83;99966.00;5108806;28;20036;-81
2022/03/31 02:29:27;;;;;;;18.77;7.20;;;;;;;12.43;57.58;99946.69;5099536;28;20475;-82
2022/03/31 02:31:52;;;;;;;21.20;7.00;;;;;;;12.41;57.53;99956.84;5091300;28;20047;-83
2022/03/31 02:34:18;;;;;;;19.67;7.35;;;;;;;12.53;57.23;99959.88;5070202;28;20035;-82
2022/03/31 02:36:43;;;;;;;19.40;7.90;;;;;;;12.64;56.69;99966.59;5109092;28;20050;-83
2022/03/31 02:39:09;;;;;;;17.77;6.90;;;;;;;12.71;56.53;99954.03;5092352;28;20172;-83
2022/03/31 02:41:35;;;;;;;17.40;6.60;;;;;;;12.73;56.52;99960.06;5107348;28;20047;-83
2022/03/31 02:44:02;;;;;;;;;;;;;;;12.73;56.56;99957.38;5110314;28;20098;-81
2022/03/31 02:46:28;;;;;;;14.35;6.50;;;;;;;12.64;56.45;99953.13;5102169;28;20008;-82
2022/03/31 02:48:54;;;;;;;19.45;7.35;;;;;;;12.74;56.34;99967.13;5109169;28;20055;-83
2022/03/31 02:51:21;;;;;;;20.42;6.90;;;;;;;12.72;56.26;99947.63;5108089;28;20036;-82
2022/03/31 02:56:32;;;;;;;20.85;7.57;;;;;;;12.65;56.57;99946.72;5093367;28;20185;-82
2022/03/31 02:58:58;;;;;;;21.80;7.30;;;;;;;12.74;56.44;99955.53;5074427;28;20488;-83
2022/03/31 03:01:23;;;;;;;19.73;7.22;;;;;;;12.76;56.47;99951.59;5100518;28;20054;-83
2022/03/31 03:03:51;;;;;;;20.58;7.05;;;;;;;12.78;56.33;99941.47;5074243;28;20052;-82
2022/03/31 03:06:17;;;;;;;16.05;7.30;;;;;;;12.58;56.65;99921.53;5090694;28;20555;-83
2022/03/31 03:08:43;;;;;;;18.25;7.30;;;;;;;12.76;56.46;99940.81;5108037;28;20072;-83
2022/03/31 03:11:09;;;;;;;16.27;7.70;;;;;;;12.76;56.21;99937.25;5108821;28;20036;-83
2022/03/31 03:13:37;;;;;;;24.80;7.20;;;;;;;12.71;56.60;99934.31;5097930;28;20028;-83
2022/03/31 03:16:15;;;;;;;23.48;8.00;;;;;;;12.62;56.55;99936.31;5071279;28;20457;-81
2022/03/31 03:18:41;;;;;;;20.88;8.10;;;;;;;12.56;57.14;99961.34;5090350;28;20043;-82
2022/03/31 03:21:08;;;;;;;27.40;8.32;;;;;;;12.52;57.10;99952.78;5109711;28;20043;-82
2022/03/31 03:23:35;;;;;;;20.30;7.60;;;;;;;12.46;57.23;99943.63;5091303;28;20063;-83
2022/03/31 03:26:01;;;;;;;18.05;7.30;;;;;;;12.52;57.01;99946.56;5090763;28;20120;-83
2022/03/31 03:28:27;;;;;;;25.80;8.40;;;;;;;12.64;56.77;99963.91;5112569;28;20228;-83
2022/03/31 03:30:53;;;;;;;18.60;7.93;;;;;;;12.58;57.18;99962.00;5098946;28;20035;-82
2022/03/31 03:33:18;;;;;;;21.85;7.53;;;;;;;12.57;57.21;99973.78;5123305;28;20051;-81
2022/03/31 03:35:44;;;;;;;26.45;8.27;;;;;;;12.57;57.13;99976.47;5115295;28;20039;-83
2022/03/31 03:38:10;;;;;;;19.52;7.57;;;;;;;12.58;57.28;99983.56;5096424;28;20055;-82
2022/03/31 03:40:36;;;;;;;20.58;7.57;;;;;;;12.44;57.57;99972.63;5088152;28;20052;-82
2022/03/31 03:43:01;;;;;;;20.98;7.90;;;;;;;12.52;57.60;99973.53;5093664;28;20040;-82
2022/03/31 03:45:29;;;;;;;21.95;8.63;;;;;;;12.33;57.80;99951.53;5089111;28;20476;-83
2022/03/31 03:47:54;;;;;;;21.83;8.27;;;;;;;12.55;57.58;99973.13;5074433;28;20115;-83
2022/03/31 03:50:20;;;;;;;25.73;8.95;;;;;;;12.43;57.85;99972.78;5116207;28;20055;-83
2022/03/31 03:52:48;;;;;;;;;;;;;;;12.45;57.82;99977.00;5067432;28;20423;-83
2022/03/31 03:55:14;;;;;;;18.30;8.15;;;;;;;12.50;57.87;99972.88;5063026;28;20368;-82
2022/03/31 03:57:39;;;;;;;20.70;8.80;;;;;;;12.56;57.67;99961.34;5093932;28;20035;-82
2022/03/31 04:00:05;;;;;;;26.10;10.30;;;;;;;12.38;58.20;99941.03;5071589;28;20043;-81
2022/03/31 04:02:31;;;;;;;19.92;8.73;;;;;;;12.59;57.91;99964.47;5067039;28;20067;-80
2022/03/31 04:04:58;;;;;;;20.88;8.70;;;;;;;12.56;58.03;99958.66;5094876;28;20024;-80
2022/03/31 04:07:24;;;;;;;26.55;9.32;;;;;;;12.57;57.76;99944.13;5057735;28;20059;-80
2022/03/31 04:09:49;;;;;;;26.25;9.40;;;;;;;12.65;57.40;99939.44;5073785;28;20488;-80
2022/03/31 04:12:15;;;;;;;24.25;9.75;;;;;;;12.67;57.70;99956.28;5074874;28;20032;-80
2022/03/31 04:14:40;;;;;;;28.20;9.23;;;;;;;12.65;57.71;99946.72;5105963;28;20023;-81
2022/03/31 04:17:06;;;;;;;23.30;9.38;;;;;;;12.80;57.42;99949.34;5102707;28;20055;-82
2022/03/31 04:19:33;;;;;;;33.78;10.10;;;;;;;12.82;57.21;99958.91;5074728;28;20043;-84
2022/03/31 04:21:59;;;;;;;23.27;9.70;;;;;;;12.75;57.77;99951.78;5092214;28;20110;-82
2022/03/31 04:24:26;;;;;;;26.80;9.68;;;;;;;12.84;57.75;99950.63;5056461;28;20040;-83
2022/03/31 04:26:52;;;;;;;22.50;9.40;;;;;;;12.81;57.79;99954.56;5074325;28;20039;-83
2022/03/31 04:29:18;;;;;;;42.65;14.02;;;;;;;12.68;58.40;99954.41;5056670;28;20024;-84
2022/03/31 04:31:44;;;;;;;28.58;10.93;;;;;;;12.75;58.19;99966.09;5090718;28;20038;-83
2022/03/31 04:34:11;;;;;;;35.58;11.02;;;;;;;12.92;57.82;99968.53;5060627;28;20381;-82
2022/03/31 04:36:36;;;;;;;;;;;;;;;13.03;57.78;99976.13;5071265;28;20059;-81
2022/03/31 04:39:02;;;;;;;33.33;10.10;;;;;;;13.07;57.43;99978.25;5073061;28;19916;-83
2022/03/31 04:41:27;;;;;;;30.55;9.90;;;;;;;13.07;57.79;99977.41;5044661;28;20051;-82
2022/03/31 04:43:53;;;;;;;32.75;11.02;;;;;;;13.29;57.09;99967.44;5068043;28;20074;-81
2022/03/31 04:46:19;;;;;;;27.80;10.02;;;;;;;13.21;57.05;99954.91;5062076;28;20488;-81
2022/03/31 04:48:45;;;;;;;32.03;11.30;;;;;;;13.34;56.69;99956.06;5083362;28;20040;-81
2022/03/31 04:51:12;;;;;;;37.40;10.45;;;;;;;13.48;56.80;99960.53;5067702;28;20028;-81
2022/03/31 04:53:37;;;;;;;;;;;;;;;13.70;55.99;99962.16;5074477;28;20110;-81
2022/03/31 04:56:03;;;;;;;35.05;10.93;;;;;;;13.79;55.62;99960.13;5073317;28;19916;-82
2022/03/31 04:58:29;;;;;;;35.28;11.10;;;;;;;13.98;55.33;99963.97;5057543;28;20036;-81
2022/03/31 05:00:54;;;;;;;30.25;10.90;;;;;;;14.08;54.73;99953.63;5060275;28;20044;-81
2022/03/31 05:03:20;;;;;;;38.95;10.60;;;;;;;14.27;54.13;99978.22;5090349;28;20354;-80
2022/03/31 05:05:45;;;;;;;36.88;11.38;;;;;;;14.40;53.85;99959.38;5057935;28;20040;-81
2022/03/31 05:08:11;;;;;;;39.33;10.80;;;;;;;14.43;53.74;99955.41;5073408;28;20036;-81
2022/03/31 05:10:37;;;;;;;;;;;;;;;14.66;53.32;99976.75;5091431;28;20705;-79
2022/03/31 05:13:04;;;;;;;30.80;10.95;;;;;;;14.92;52.78;99976.78;5076685;28;19923;-80
2022/03/31 05:15:31;;;;;;;30.20;10.27;;;;;;;15.15;52.00;99965.56;5089700;28;20064;-79
2022/03/31 05:17:56;;;;;;;;;;;;;;;15.27;51.70;99957.66;5073884;28;20036;-79
2022/03/31 05:20:23;;;;;;;38.53;11.30;;;;;;;15.47;51.24;99957.63;5075493;28;19927;-81
2022/03/31 05:22:48;;;;;;;38.83;15.02;;;;;;;15.69;50.93;99950.09;5058613;28;20114;-80
2022/03/31 05:25:15;;;;;;;37.72;12.23;;;;;;;15.88;50.26;99948.41;5074206;28;20120;-80
2022/03/31 05:27:43;;;;;;;;;;;;;;;16.04;49.80;99942.53;5056852;28;20063;-80
2022/03/31 05:30:13;;;;;;;37.17;11.57;;;;;;;16.29;49.44;99940.97;5091057;28;19916;-81
2022/03/31 05:32:38;;;;;;;30.80;10.70;;;;;;;16.45;49.06;99932.31;5091493;28;20040;-82
2022/03/31 05:35:08;;;;;;;28.58;11.18;;;;;;;16.57;48.35;99941.44;5091713;28;20141;-81
2022/03/31 05:37:33;;;;;;;36.42;12.20;;;;;;;16.67;48.46;99947.22;5089797;28;20176;-81
2022/03/31 05:40:04;;;;;;;31.33;11.25;;;;;;;16.95;47.52;99948.75;5092488;28;20118;-81
2022/03/31 05:42:32;;;;;;;34.30;11.63;;;;;;;17.13;46.89;99944.44;5079649;28;20059;-82
2022/03/31 05:44:58;;;;;;;36.75;12.27;;;;;;;17.55;46.21;99931.09;5060639;28;20492;-81
2022/03/31 05:47:26;;;;;;;37.97;12.60;;;;;;;17.47;46.14;99945.81;5110465;28;20044;-81
2022/03/31 05:49:52;;;;;;;32.25;12.30;;;;;;;17.43;46.44;99945.41;5112433;28;20180;-81
2022/03/31 05:52:19;;;;;;;;;;;;;;;18.43;44.16;99936.16;5111834;28;20151;-81
2022/03/31 05:54:45;;;;;;;29.63;10.73;;;;;;;18.89;42.79;99925.66;5110943;28;20030;-81
2022/03/31 05:57:10;;;;;;;;;;;;;;;18.99;42.73;99945.00;5109239;28;20032;-82
2022/03/31 05:59:36;;;;;;;38.22;11.93;;;;;;;18.76;42.98;99915.78;5094023;28;19996;-85
2022/03/31 06:02:01;;;;;;;;;;;;;;;19.29;42.15;99933.19;5097285;28;20052;-82
2022/03/31 06:04:28;;;;;;;;;;;;;;;19.84;40.92;99924.66;5102768;28;19967;-80
2022/03/31 06:06:54;;;;;;;29.15;11.40;;;;;;;20.36;39.93;99926.53;5101062;28;19916;-82
2022/03/31 06:09:19;;;;;;;;;;;;;;;20.13;39.99;99925.53;5103164;28;20039;-82
2022/03/31 06:11:45;;;;;;;34.60;12.55;;;;;;;19.98;40.66;99936.97;5108713;28;19923;-81
2022/03/31 06:14:10;;;;;;;;;;;;;;;20.54;39.60;99931.00;5105661;28;20031;-83
2022/03/31 06:16:36;;;;;;;33.20;10.18;;;;;;;20.35;39.94;99924.91;5091701;28;19965;-81
2022/03/31 06:19:01;;;;;;;35.30;10.45;;;;;;;19.65;41.05;99907.59;5101399;28;20507;-80
2022/03/31 06:21:26;;;;;;;;;;;;;;;19.69;41.29;99918.88;5093126;28;20066;-83
2022/03/31 06:23:52;;;;;;;40.13;10.70;;;;;;;19.00;42.99;99922.16;5110138;28;19915;-79
2022/03/31 06:26:17;;;;;;;;;;;;;;;18.97;43.27;99938.97;5098953;28;20031;-80
2022/03/31 06:28:43;;;;;;;30.83;9.35;;;;;;;18.88;43.47;99930.28;5097758;28;19920;-79
2022/03/31 06:31:09;;;;;;;;;;;;;;;19.02;43.13;99930.91;5101966;28;20035;-80
2022/03/31 06:33:34;;;;;;;;;;;;;;;18.72;44.15;99936.38;5107218;28;20019;-80
2022/03/31 06:36:00;;;;;;;28.40;9.20;;;;;;;18.53;44.44;99919.28;5102556;28;19927;-82
2022/03/31 06:38:25;;;;;;;;;;;;;;;18.67;44.30;99926.19;5109266;28;20078;-80
2022/03/31 06:41:06;;;;;;;28.55;8.52;;;;;;;18.94;43.47;99933.97;5093819;28;19978;-81
2022/03/31 06:43:37;;;;;;;27.35;8.95;;;;;;;19.47;42.28;99932.25;5108905;28;20197;-79
2022/03/31 06:46:02;;;;;;;34.45;9.40;;;;;;;20.42;40.42;99934.59;5076834;28;20126;-80
2022/03/31 06:48:35;;;;;;;;;;;;;;;21.16;38.72;99927.44;5090941;28;20036;-81
2022/03/31 06:51:01;;;;;;;27.48;9.75;;;;;;;20.93;39.04;99912.88;5108669;28;20439;-80
2022/03/31 06:53:26;;;;;;;;;;;;;;;20.67;39.66;99938.91;5096473;28;20050;-79
2022/03/31 06:55:52;;;;;;;22.98;8.23;;;;;;;20.83;39.30;99949.03;5104751;28;19934;-80
2022/03/31 06:58:17;;;;;;;34.83;9.18;;;;;;;22.48;36.04;99947.66;5103103;28;20503;-80
2022/03/31 07:00:43;;;;;;;29.80;8.82;;;;;;;22.64;35.73;99948.66;5110819;28;20487;-79
2022/03/31 07:03:09;;;;;;;35.42;8.95;;;;;;;22.97;35.07;99953.09;5103971;28;20068;-81
2022/03/31 07:05:38;;;;;;;30.73;8.77;;;;;;;23.46;34.16;99949.41;5095837;28;20043;-79
2022/03/31 07:08:04;;;;;;;25.75;7.88;;;;;;;23.29;34.17;99957.75;5103265;28;20028;-85
2022/03/31 07:10:30;;;;;;;29.23;8.07;;;;;;;22.33;36.30;99961.16;5101560;28;20047;-82
2022/03/31 07:12:56;;;;;;;37.60;8.32;;;;;;;22.30;36.36;99958.94;5098126;28;20078;-79
2022/03/31 07:15:23;;;;;;;29.00;8.38;;;;;;;22.36;36.45;99948.88;5106404;28;20535;-80
2022/03/31 07:17:49;;;;;;;33.17;8.73;;;;;;;22.38;36.30;99946.69;5094389;28;20066;-81
2022/03/31 07:20:16;;;;;;;37.75;8.48;;;;;;;22.94;35.53;99955.50;5093938;28;20051;-80
2022/03/31 07:22:43;;;;;;;23.38;7.90;;;;;;;23.52;34.20;99953.00;5126440;28;20047;-81
2022/03/31 07:25:08;;;;;;;27.40;7.88;;;;;;;22.43;35.90;99964.03;5111343;28;20583;-83
2022/03/31 07:27:35;;;;;;;29.48;8.27;;;;;;;22.03;36.95;99965.16;5103150;28;20063;-79
2022/03/31 07:30:02;;;;;;;33.17;7.90;;;;;;;21.73;37.94;99976.50;5107017;28;20118;-79
2022/03/31 07:32:27;;;;;;;30.98;8.30;;;;;;;21.76;38.30;99975.16;5105978;28;20049;-80
2022/03/31 07:34:53;;;;;;;26.40;7.80;;;;;;;23.53;34.32;99974.69;5102129;28;20032;-80
2022/03/31 07:37:19;;;;;;;33.10;8.00;;;;;;;23.95;33.43;99967.56;5105752;28;20419;-79
2022/03/31 07:39:46;;;;;;;29.65;7.45;;;;;;;23.75;33.77;99963.59;5109521;28;20066;-79
2022/03/31 07:42:16;;;;;;;39.88;8.32;;;;;;;23.31;35.00;99966.56;5091685;28;20062;-79
2022/03/31 07:44:42;;;;;;;23.35;7.78;;;;;;;22.81;35.59;99954.03;5110361;28;20071;-82
2022/03/31 07:47:07;;;;;;;32.42;7.88;;;;;;;22.79;35.61;99960.84;5108726;28;20040;-79
2022/03/31 07:49:33;;;;;;;26.52;8.55;;;;;;;23.27;35.12;99959.97;5110936;28;20036;-81
2022/03/31 07:51:58;;;;;;;30.75;8.90;;;;;;;23.24;34.96;99956.91;5129030;28;20031;-80
2022/03/31 07:54:24;;;;;;;28.17;8.07;;;;;;;22.71;35.97;99954.75;5109420;28;20039;-79
2022/03/31 07:56:50;;;;;;;33.10;8.30;;;;;;;22.27;36.95;99973.97;5107558;28;20123;-80
2022/03/31 07:59:21;;;;;;;31.65;7.97;;;;;;;23.08;35.47;99964.16;5093634;28;20027;-80
2022/03/31 08:01:47;;;;;;;26.60;7.82;;;;;;;22.85;35.67;99971.63;5101599;28;20048;-80
2022/03/31 08:04:14;;;;;;;24.35;7.65;;;;;;;23.12;35.04;99968.03;5104606;28;20042;-80
2022/03/31 08:06:43;;;;;;;33.08;8.68;;;;;;;23.56;34.06;99937.66;5094467;28;20020;-81
2022/03/31 08:09:13;;;;;;;24.30;7.93;;;;;;;23.73;33.87;99943.81;5107368;28;20409;-80
2022/03/31 08:11:39;;;;;;;26.70;8.50;;;;;;;23.80;33.81;99957.31;5100079;28;20027;-81
2022/03/31 08:14:05;;;;;;;21.30;7.35;;;;;;;23.71;33.53;99962.44;5112991;28;20024;-81
2022/03/31 08:16:32;;;;;;;29.77;7.88;;;;;;;24.06;33.60;99955.53;5112285;28;20436;-83
2022/03/31 08:18:58;;;;;;;36.35;9.15;;;;;;;24.25;32.90;99966.06;5112557;28;20495;-82
2022/03/31 08:21:23;;;;;;;36.47;8.70;;;;;;;23.37;34.44;99976.47;5087634;28;20047;-81
2022/03/31 08:23:49;;;;;;;31.38;7.78;;;;;;;23.41;34.50;99962.22;5095728;28;20047;-84
2022/03/31 08:26:15;;;;;;;34.35;8.20;;;;;;;23.00;35.61;99957.25;5105030;28;20040;-81
2022/03/31 08:28:40;;;;;;;28.90;8.38;;;;;;;22.54;36.01;99949.34;5110264;28;20211;-79
2022/03/31 08:31:06;;;;;;;27.92;7.80;;;;;;;22.80;35.53;99965.22;5110233;28;20525;-79
2022/03/31 08:33:31;;;;;;;26.17;7.88;;;;;;;24.05;33.74;99948.41;5111116;28;20067;-80
2022/03/31 08:35:57;;;;;;;27.92;8.60;;;;;;;24.89;32.18;99945.63;5108437;28;20023;-80
2022/03/31 08:38:23;;;;;;;28.95;8.00;;;;;;;24.83;32.20;99942.06;5111414;28;20070;-79
2022/03/31 08:40:50;;;;;;;22.90;7.70;;;;;;;24.52;32.20;99939.25;5110258;28;20098;-80
2022/03/31 08:43:17;;;;;;;29.25;7.65;;;;;;;25.06;31.64;99936.03;5109055;28;20039;-84
2022/03/31 08:45:44;;;;;;;29.13;8.13;;;;;;;25.53;30.69;99955.31;5101352;27;20047;-81
2022/03/31 08:48:11;;;;;;;31.90;9.05;;;;;;;25.51;30.44;99944.56;5090836;28;20522;-78
2022/03/31 08:50:37;;;;;;;23.50;7.18;;;;;;;24.26;32.89;99951.25;5108763;27;20491;-82
2022/03/31 08:53:04;;;;;;;36.22;7.55;;;;;;;24.75;32.15;99953.63;5109841;28;20039;-80
2022/03/31 08:55:30;;;;;;;23.75;7.63;;;;;;;24.01;33.34;99950.03;5091640;28;20108;-79
2022/03/31 08:57:55;;;;;;;32.85;7.70;;;;;;;23.97;33.29;99941.47;5106853;28;20046;-78
2022/03/31 09:00:22;;;;;;;39.33;7.68;;;;;;;24.19;32.98;99941.31;5113303;28;20035;-81
2022/03/31 09:02:58;;;;;;;36.13;7.97;;;;;;;24.36;32.52;99932.84;5111201;28;20031;-78
2022/03/31 09:05:23;;;;;;;32.85;7.55;;;;;;;25.10;31.31;99928.06;5111680;28;20098;-81
2022/03/31 09:07:53;;;;;;;30.75;7.82;;;;;;;25.19;31.46;99925.59;5111132;28;20428;-79
2022/03/31 09:10:38;;;;;;;35.45;7.93;;;;;;;25.23;31.32;99913.78;5111085;28;20034;-80
2022/03/31 09:13:15;;;;;;;27.10;7.20;;;;;;;25.30;31.22;99912.69;5112567;28;20530;-79
2022/03/31 09:15:52;;;;;;;28.73;7.75;;;;;;;26.83;28.94;99903.81;5075676;28;20043;-79
2022/03/31 09:18:19;;;;;;;25.38;7.63;;;;;;;27.85;27.60;99904.00;5097123;28;20110;-80
2022/03/31 09:20:44;;;;;;;35.22;8.60;;;;;;;27.46;28.06;99927.84;5111201;28;20031;-80
2022/03/31 09:23:17;;;;;;;27.27;7.53;;;;;;;28.01;27.37;99913.75;5112468;28;20465;-80
2022/03/31 09:25:43;;;;;;;27.15;6.93;;;;;;;27.96;27.13;99922.09;5111100;28;20100;-80
2022/03/31 09:28:16;;;;;;;38.33;7.88;;;;;;;27.32;28.21;99924.13;5110538;28;20039;-79
2022/03/31 09:30:43;;;;;;;29.05;7.75;;;;;;;27.27;28.29;99919.47;5111397;28;20055;-79
2022/03/31 09:33:09;;;;;;;29.75;7.25;;;;;;;26.38;29.73;99907.66;5110879;28;20042;-81
2022/03/31 09:35:34;;;;;;;29.38;7.28;;;;;;;25.69;30.82;99921.13;5111763;28;20039;-80
2022/03/31 09:38:00;;;;;;;31.45;7.53;;;;;;;25.02;32.20;99912.94;5110262;28;20521;-79
2022/03/31 09:40:34;;;;;;;34.33;7.85;;;;;;;24.57;32.54;99897.22;5093772;28;20028;-80
2022/03/31 09:43:00;;;;;;;34.10;6.80;;;;;;;24.81;32.22;99892.03;5111478;28;20043;-80
2022/03/31 09:45:46;;;;;;;31.10;7.38;;;;;;;26.13;30.48;99894.84;5112167;28;20046;-80
2022/03/31 09:48:19;;;;;;;34.85;7.50;;;;;;;25.58;31.08;99906.56;5110947;28;20062;-80
2022/03/31 09:50:45;;;;;;;32.13;7.50;;;;;;;25.22;31.82;99890.13;5110885;28;20028;-79
2022/03/31 09:53:11;;;;;;;28.05;7.30;;;;;;;25.88;30.80;99905.69;5093047;28;20046;-79
2022/03/31 09:55:38;;;;;;;23.38;6.75;;;;;;;26.03;30.34;99895.72;5110927;28;20032;-78
2022/03/31 09:58:04;;;;;;;32.03;7.20;;;;;;;24.81;32.25;99881.03;5109922;28;20441;-81
2022/03/31 10:00:30;;;;;;;33.33;7.75;;;;;;;24.30;33.08;99897.41;5110118;28;20015;-80
2022/03/31 10:02:55;;;;;;;32.72;7.80;;;;;;;23.87;34.30;99900.25;5110064;28;20365;-80
2022/03/31 10:05:21;;;;;;;31.40;7.88;;;;;;;23.94;34.30;99878.06;5110604;28;20042;-82
2022/03/31 10:07:48;;;;;;;29.65;7.82;;;;;;;23.66;34.68;99857.34;5110055;28;20085;-79
2022/03/31 10:10:13;;;;;;;35.08;7.65;;;;;;;23.51;35.33;99864.41;5110984;28;20030;-79
2022/03/31 10:12:53;;;;;;;26.75;7.50;;;;;;;24.69;33.37;99853.00;5112082;28;20039;-78
2022/03/31 10:15:26;;;;;;;26.00;7.03;;;;;;;25.17;32.31;99848.84;5104682;28;20042;-79
2022/03/31 10:17:52;;;;;;;32.10;8.68;;;;;;;25.02;32.46;99844.19;5127361;28;20023;-81
2022/03/31 10:20:17;;;;;;;35.88;8.45;;;;;;;25.24;32.57;99834.84;5093555;28;20043;-80
2022/03/31 10:25:39;;;;;;;27.67;7.13;;;;;;;24.68;32.67;99832.09;5091172;28;20419;-80
2022/03/31 10:28:09;;;;;;;25.15;7.30;;;;;;;25.00;32.53;99848.31;5108191;28;20114;-77
2022/03/31 10:30:35;;;;;;;37.88;7.88;;;;;;;25.71;31.58;99850.13;5090779;28;20024;-79
2022/03/31 10:33:05;;;;;;;38.60;8.25;;;;;;;26.32;30.32;99846.25;5105798;28;20043;-79
2022/03/31 10:35:32;;;;;;;32.90;7.22;;;;;;;26.14;30.43;99857.94;5109450;28;20130;-79
2022/03/31 10:37:59;;;;;;;40.10;8.52;;;;;;;27.19;29.07;99850.28;5109646;28;20031;-78
2022/03/31 10:40:35;;;;;;;35.30;8.15;;;;;;;27.20;29.00;99862.97;5110933;28;20016;-79
2022/03/31 10:43:01;;;;;;;37.35;7.72;;;;;;;27.53;28.42;99845.53;5108834;28;20105;-78
2022/03/31 10:45:45;;;;;;;27.63;7.10;;;;;;;27.43;28.17;99834.59;5110899;28;20019;-79
2022/03/31 10:48:16;;;;;;;32.28;6.93;;;;;;;26.30;29.67;99819.00;5110229;28;20040;-79
2022/03/31 10:50:42;;;;;;;34.90;7.57;;;;;;;26.41;29.82;99818.91;5110707;28;20132;-79
2022/03/31 10:53:08;;;;;;;25.75;6.88;;;;;;;26.66;29.76;99821.50;5109209;28;20032;-81
2022/03/31 10:55:42;;;;;;;29.48;7.53;;;;;;;25.73;30.90;99803.03;5110584;28;20031;-79
2022/03/31 10:58:25;;;;;;;29.63;7.10;;;;;;;26.01;30.26;99799.63;5108862;28;20411;-81
2022/03/31 11:00:51;;;;;;;36.38;7.45;;;;;;;25.35;31.59;99786.13;5093592;28;20167;-79
2022/03/31 11:03:17;;;;;;;33.13;7.65;;;;;;;25.47;31.17;99764.59;5109158;28;20126;-78
2022/03/31 11:05:43;;;;;;;36.05;7.47;;;;;;;24.71;32.42;99771.91;5100765;28;20109;-82
2022/03/31 11:08:08;;;;;;;31.48;7.00;;;;;;;24.09;33.58;99775.69;5104054;28;20024;-79
2022/03/31 11:10:49;;;;;;;37.70;7.07;;;;;;;23.92;33.81;99775.94;5092909;28;20086;-78
2022/03/31 11:13:16;;;;;;;38.13;7.70;;;;;;;23.56;34.45;99792.28;5103690;28;20051;-80
2022/03/31 11:15:46;;;;;;;30.30;7.03;;;;;;;23.98;33.80;99791.34;5110871;28;20035;-79
2022/03/31 11:18:12;;;;;;;35.88;6.88;;;;;;;24.90;32.08;99798.84;5104020;28;20036;-79
2022/03/31 11:20:38;;;;;;;34.03;7.55;;;;;;;24.51;32.45;99789.22;5096244;28;20550;-79
2022/03/31 11:23:06;;;;;;;34.25;6.93;;;;;;;24.72;32.57;99814.78;5087024;28;20039;-77
2022/03/31 11:25:31;;;;;;;41.05;8.23;;;;;;;23.99;33.84;99810.28;5102258;28;20353;-80
2022/03/31 11:27:58;;;;;;;36.72;7.20;;;;;;;23.74;34.18;99837.63;5099741;28;20111;-78
2022/03/31 11:30:25;;;;;;;36.58;7.07;;;;;;;23.11;35.40;99837.56;5102046;28;20056;-82
2022/03/31 11:32:52;;;;;;;38.22;7.18;;;;;;;22.74;36.19;99830.13;5103913;28;20044;-80
2022/03/31 11:35:19;;;;;;;33.88;7.82;;;;;;;22.74;36.14;99830.13;5068809;28;20036;-79